AirNav   ProFlight Series 2 Aviation Headset
 
 690 users online  

75G Rossettie Airport
Manchester, Michigan, USA

GOING TO MANCHESTER?


FAA INFORMATION EFFECTIVE 16 JULY 2020

Location

FAA Identifier: 75G
Lat/Long: 42-11-42.3500N 084-01-51.1000W
42-11.705833N 084-01.851667W
42.1950972,-84.0308611
(estimated)
Elevation: 1005 ft. / 306.3 m (surveyed)
Variation: 05W (1985)
From city: 3 miles N of MANCHESTER, MI
Time zone: UTC -4 (UTC -5 during Standard Time)
Zip code: 48158

Airport Operations

Airport use: Open to the public
Activation date: 02/1976
Control tower: no
ARTCC: CLEVELAND CENTER
FSS: LANSING FLIGHT SERVICE STATION
NOTAMs facility: LAN (NOTAM-D service available)
Attendance: IREG
Wind indicator: yes
Segmented circle: yes
Lights: ACTIVATE LIRL-CTAF.

Airport Communications

CTAF: 122.9
WX ASOS at ARB (13 nm E): 134.55 (734-668-7173)
WX ASOS at JXN (20 nm W): 122.725 (517-768-7506)
WX ASOS at ADG (20 nm S): 118.375 (517-265-9089)

Nearby radio navigation aids

VOR radial/distance  VOR name  Freq  Var
SVMr240/23.2SALEM VORTAC114.3003W
CRLr292/27.0CARLETON VOR/DME115.7003W
DXOr274/29.5DETROIT VOR/DME113.4006W
LFDr081/33.6LITCHFIELD VOR/DME111.2005W

 
NDB name  Hdg/Dist  Freq  Var  ID
TECUMSEH332/11.623906WTCU - -.-. ..-
ADRIAN012/19.627806WADG .- -.. --.
GROSSE ILE285/39.541907WRYS .-. -.-- ...

Airport Services

Fuel available: UL94
Parking: tiedowns
Airframe service: NONE
Powerplant service: NONE
Bottled oxygen: NONE
Bulk oxygen: NONE

Runway Information

Runway 18/36

Dimensions: 2480 x 100 ft. / 756 x 30 m
Surface: turf, in fair condition
Runway edge lights: low intensity
NSTD LIRL DUE TO SPACING.
Runway edge markings: RWY 18 /36 MKD WITH 3 FT YELLOW CONES.
RUNWAY 18  RUNWAY 36
Latitude: 42-11.910000N42-11.501667N
Longitude: 084-01.856667W084-01.846667W
Elevation: 968.0 ft.1005.0 ft.
Traffic pattern: leftright
Runway heading: 184 magnetic, 179 true004 magnetic, 359 true
Displaced threshold: no365 ft.
Markings: NSTDNSTD
Runway end identifier lights: nono
Obstructions: 36 ft. trees, 727 ft. from runway, 20:1 slope to clear12 ft. road, 25 ft. from runway, 2:1 slope to clear
APCH RATIO 20:1 AT DTHR; DTHR EST -5 FT BLW THR.

Airport Ownership and Management from official FAA records

Ownership: Privately-owned
Owner: ALICE G. ROSSETTIE
8875 CHELSEA RD
MANCHESTER, MI 48158
Phone (734) 323-8766
Manager: ALICE G. ROSSETTIE
ROSSETTIE AIRPORT INC, 8875 CHELSEA RD
MANCHESTER, MI 48158
Phone (734) 323-8766

Airport Operational Statistics

Aircraft based on the field: 15
Single engine airplanes: 7
Gliders airplanes: 2
Ultralights: 6
    
Aircraft operations: avg 42/month *
60% local general aviation
40% transient general aviation
* for 12-month period ending 31 December 2017

Additional Remarks

RY ON ROLLING TERRAIN, SOFT IN SPRING.
FOR CD CTC DETROIT APCH AT 800-499-8181.
BIRDS AND DEER ON AND INVOF RWY.
FOR RWY CONDITIONS WHEN SNOWING CTC AMGR.
OPPOSITE RWY END NOT VISIBLE FROM THR.

Instrument Procedures

There are no published instrument procedures at 75G.

Some nearby airports with instrument procedures:

KARB - Ann Arbor Municipal Airport (13 nm E)
KJXN - Jackson County Airport-Reynolds Field (20 nm W)
KADG - Lenawee County Airport (20 nm S)
KYIP - Willow Run Airport (22 nm E)
Y47 - Oakland Southwest Airport (26 nm NE)
 
Loc | Ops | Rwys | IFR | FBO | Links
Com | Nav | Svcs | Stats | Notes
Area around 75G (Rossettie Airport)
 
Road maps at: MapQuest Bing Google
 
Aerial photo
WARNING: Photo may not be current or correct
Aerial photo of 75G (Rossettie Airport)
Photo by Evan Nau

Do you have a better or more recent aerial photo of Rossettie Airport that you would like to share? If so, please send us your photo.

 
Sectional chart

 
Airport distance calculator
Flying to Rossettie Airport? Find the distance to fly.

From to 75G

Sunrise and sunset
Times for 04-Aug-2020
 Local
(UTC-4)
 Zulu
(UTC)
Morning civil twilight06:0310:03
Sunrise06:3410:34
Sunset20:5000:50
Evening civil twilight21:2101:21

Current date and time
Zulu (UTC)  04-Aug-2020 04:10:53
Local (UTC-4)  04-Aug-2020 00:10:53
 
METAR
KARB 
13nm E 
734-668-7173
040353Z AUTO 03008KT 10SM CLR 19/17 A2995 RMK AO2 SLP137 T01940167
KJXN 
20nm W 
040356Z 35006KT 10SM BKN011 OVC060 18/17 A2998 RMK AO2 SLP146 T01830167
KADG 
20nm S 
040353Z AUTO 01014G19KT 10SM FEW019 BKN035 21/17 A2997 RMK AO2 SLP145 T02060172 TSNO
KYIP 
22nm E 
040402Z 03012KT 10SM BKN012 21/17 A2996 RMK AO2 T02110172
KOZW 
25nm N 
040355Z AUTO 05008KT 10SM OVC015 19/16 A2999 RMK AO2 T01870160
TAF
KJXN 
20nm W 
040227Z 0402/0424 35009KT P6SM VCSH BKN017 BKN027 FM040400 01009KT P6SM VCSH BKN010 FM040800 35008KT P6SM BKN006 FM041300 34007KT P6SM VCSH BKN012 FM041800 33009KT P6SM BKN035
KYIP 
22nm E 
031727Z 0318/0418 25007KT P6SM BKN035 TEMPO 0318/0322 3SM TSRA OVC030CB FM032300 01010KT P6SM SCT035 FM040400 35006KT P6SM BKN025
NOTAMs
Click for the latest NOTAMs
NOTAMs are issued by the DoD/FAA and will open in a separate window not controlled by AirNav.

 

 
 

Would you like to see your business listed on this page?

 If your business provides an interesting product or service to pilots, flight crews, aircraft, or users of the Rossettie Airport, you should consider listing it here.  To start the listing process, click on the button below
 
Add a business
 

Other Pages about Rossettie Airport

Page from the Michigan Airport Directory (PDF)
 
Update a link
 
Copyright © AirNav, LLC. All rights reserved. Privacy Policy  Contact